TAF PHLI
PHLI 090527Z 0906/1006 08016KT P6SM SCT025 BKN040=
METAR PHLI
WC PHLI
WS PHLI
WV PHLI